Time;durP1;ratioP1;P1;durP2;ratioP2;P2;SDS_P1;SDS_P2;PMS_P1;PMS_P2;Temp;Humidity;BMP_temperature;BMP_pressure;BME280_temperature;BME280_humidity;BME280_pressure;Samples;Min_cycle;Max_cycle;Signal;HPM_P1;HPM_P2
2021/11/04 00:02:11;;;;;;;0.52;0.50;;;;;;;5.85;100.00;99475.56;5115155;28;20097;-47
2021/11/04 00:05:15;;;;;;;0.40;0.40;;;;;;;5.85;100.00;99481.09;5115420;28;20128;-47
2021/11/04 00:08:19;;;;;;;2.25;0.32;;;;;;;5.84;100.00;99484.31;5114701;28;20391;-47
2021/11/04 00:11:22;;;;;;;0.68;0.68;;;;;;;5.77;100.00;99477.03;5115055;28;20040;-47
2021/11/04 00:14:25;;;;;;;0.70;0.68;;;;;;;5.83;100.00;99483.50;5114935;28;20379;-47
2021/11/04 00:17:28;;;;;;;1.75;0.75;;;;;;;5.82;100.00;99487.50;5114735;28;20055;-48
2021/11/04 00:20:31;;;;;;;0.60;0.60;;;;;;;5.53;100.00;99487.00;5117859;27;20042;-48
2021/11/04 00:23:34;;;;;;;0.70;0.70;;;;;;;5.18;100.00;99488.28;5135456;27;20084;-48
2021/11/04 00:26:37;;;;;;;0.20;0.20;;;;;;;5.11;100.00;99494.06;5135075;27;20079;-47
2021/11/04 00:29:40;;;;;;;0.77;0.77;;;;;;;5.07;100.00;99493.38;5134814;27;20046;-47
2021/11/04 00:32:46;;;;;;;0.52;0.52;;;;;;;5.23;100.00;99501.50;5134667;27;20042;-47
2021/11/04 00:35:49;;;;;;;3.03;1.00;;;;;;;5.39;100.00;99495.81;5134276;27;20058;-47
2021/11/04 00:38:52;;;;;;;0.85;0.85;;;;;;;5.73;100.00;99500.47;5134573;27;20042;-48
2021/11/04 00:41:55;;;;;;;0.35;0.35;;;;;;;5.76;100.00;99494.06;5134510;27;20387;-47
2021/11/04 00:44:59;;;;;;;0.93;0.63;;;;;;;5.81;100.00;99496.22;5132385;27;20038;-47
2021/11/04 00:48:03;;;;;;;0.30;0.30;;;;;;;5.84;100.00;99504.44;5134506;27;20085;-47
2021/11/04 00:51:06;;;;;;;0.20;0.20;;;;;;;5.84;100.00;99501.66;5134360;27;20497;-47
2021/11/04 00:54:09;;;;;;;0.90;0.90;;;;;;;5.83;100.00;99502.84;5121574;27;20050;-48
2021/11/04 00:57:13;;;;;;;0.43;0.43;;;;;;;5.88;100.00;99502.31;5122092;27;20091;-48
2021/11/04 01:00:19;;;;;;;0.77;0.73;;;;;;;5.92;100.00;99502.16;5121907;27;20065;-48
2021/11/04 01:03:27;;;;;;;2.92;0.73;;;;;;;5.91;100.00;99504.13;5111121;27;20083;-47
2021/11/04 01:06:32;;;;;;;0.50;0.35;;;;;;;6.03;100.00;99517.13;5121130;27;20414;-48
2021/11/04 01:09:36;;;;;;;1.48;1.33;;;;;;;6.09;100.00;99507.00;5109332;27;20604;-47
2021/11/04 01:12:39;;;;;;;1.08;0.63;;;;;;;6.28;100.00;99513.38;5134200;27;20080;-47
2021/11/04 01:15:56;;;;;;;0.38;0.38;;;;;;;6.39;100.00;99501.94;5121406;27;20494;-47
2021/11/04 01:19:17;;;;;;;0.57;0.32;;;;;;;6.60;100.00;99521.19;5121580;27;20094;-47
2021/11/04 01:22:24;;;;;;;3.22;0.70;;;;;;;6.71;100.00;99520.78;5102422;28;20096;-47
2021/11/04 01:25:28;;;;;;;7.38;0.57;;;;;;;6.77;100.00;99516.94;5116371;27;20034;-47
2021/11/04 01:28:31;;;;;;;0.73;0.43;;;;;;;6.70;100.00;99516.44;5133716;27;20057;-48
2021/11/04 01:31:34;;;;;;;0.32;0.32;;;;;;;6.96;100.00;99519.72;5119992;27;20042;-48
2021/11/04 01:34:43;;;;;;;0.55;0.55;;;;;;;6.83;100.00;99519.84;5112928;28;20043;-48
2021/11/04 01:38:05;;;;;;;;;;;;;;;6.98;100.00;99526.34;5090679;28;20368;-48
2021/11/04 01:41:14;;;;;;;3.70;1.02;;;;;;;7.15;100.00;99524.81;5101281;28;19957;-47
2021/11/04 01:44:18;;;;;;;4.97;0.70;;;;;;;7.47;100.00;99521.44;5100395;28;20042;-47
2021/11/04 01:48:08;;;;;;;0.65;0.60;;;;;;;7.65;100.00;99518.66;5112601;28;20419;-47
2021/11/04 01:55:54;;;;;;;0.90;0.30;;;;;;;7.83;100.00;99517.88;5121160;28;20046;-53
2021/11/04 02:08:59;;;;;;;0.22;0.22;;;;;;;7.52;100.00;99514.53;5095603;28;20085;-54
2021/11/04 02:20:54;;;;;;;0.63;0.50;;;;;;;7.29;100.00;99502.06;5080361;27;20074;-53
2021/11/04 02:29:44;;;;;;;0.30;0.30;;;;;;;6.83;100.00;99523.41;5087697;27;20148;-54
2021/11/04 02:32:52;;;;;;;0.30;0.30;;;;;;;6.77;100.00;99518.94;5124711;27;20133;-54
2021/11/04 02:36:13;;;;;;;0.35;0.35;;;;;;;6.76;100.00;99525.69;5108677;28;20109;-54
2021/11/04 02:40:19;;;;;;;0.13;0.13;;;;;;;6.91;100.00;99525.88;5116998;27;20103;-54
2021/11/04 02:57:49;;;;;;;3.90;0.23;;;;;;;6.58;100.00;99547.78;5136542;27;20069;-53
2021/11/04 03:00:59;;;;;;;1.13;0.68;;;;;;;6.50;100.00;99552.03;5136537;27;20045;-53
2021/11/04 03:15:14;;;;;;;0.20;0.20;;;;;;;6.16;100.00;99550.19;5135429;27;20155;-54
2021/11/04 03:18:21;;;;;;;0.20;0.20;;;;;;;6.01;100.00;99546.44;5123987;27;20131;-54
2021/11/04 03:22:12;;;;;;;0.30;0.30;;;;;;;6.02;100.00;99557.03;5122432;27;20122;-54
2021/11/04 03:25:19;;;;;;;12.73;0.80;;;;;;;5.74;100.00;99560.81;5118966;27;20038;-54
2021/11/04 03:28:34;;;;;;;0.10;0.10;;;;;;;5.78;100.00;99547.63;5135370;27;20043;-53
2021/11/04 03:31:44;;;;;;;0.40;0.40;;;;;;;5.93;100.00;99558.97;5124088;27;20117;-54
2021/11/04 03:34:49;;;;;;;0.38;0.38;;;;;;;5.61;100.00;99553.81;5136129;27;20054;-53
2021/11/04 03:38:35;;;;;;;0.22;0.22;;;;;;;5.30;100.00;99562.00;5122814;27;20180;-54
2021/11/04 03:41:40;;;;;;;0.95;0.60;;;;;;;5.75;100.00;99565.13;5123601;27;20123;-54
2021/11/04 03:44:44;;;;;;;0.20;0.20;;;;;;;5.80;100.00;99561.78;5135851;27;20460;-54
2021/11/04 03:47:47;;;;;;;0.30;0.30;;;;;;;5.62;100.00;99556.13;5136035;27;20042;-54
2021/11/04 03:50:51;;;;;;;0.15;0.15;;;;;;;5.22;100.00;99555.16;5135035;27;20045;-53
2021/11/04 03:53:54;;;;;;;0.40;0.40;;;;;;;5.20;100.00;99563.13;5136193;27;20159;-53
2021/11/04 03:56:58;;;;;;;0.13;0.13;;;;;;;5.27;100.00;99565.66;5136392;27;20065;-54
2021/11/04 04:00:01;;;;;;;0.10;0.10;;;;;;;5.22;100.00;99571.72;5135858;27;20042;-54
2021/11/04 04:03:03;;;;;;;0.65;0.40;;;;;;;5.13;100.00;99579.94;5123119;27;20539;-54
2021/11/04 04:06:08;;;;;;;0.13;0.13;;;;;;;5.14;100.00;99579.47;5135917;27;20510;-53
2021/11/04 04:09:11;;;;;;;0.35;0.35;;;;;;;5.03;100.00;99581.03;5135678;27;20042;-54
2021/11/04 04:12:14;;;;;;;0.20;0.20;;;;;;;4.92;100.00;99575.88;5135500;27;20042;-54
2021/11/04 04:15:18;;;;;;;0.20;0.20;;;;;;;4.80;100.00;99586.94;5134857;27;20088;-54
2021/11/04 04:18:21;;;;;;;0.10;0.10;;;;;;;4.67;100.00;99584.19;5135427;27;20088;-54
2021/11/04 04:21:24;;;;;;;0.10;0.10;;;;;;;4.70;100.00;99591.56;5124573;27;20452;-54
2021/11/04 04:24:27;;;;;;;0.30;0.30;;;;;;;4.63;100.00;99587.03;5115202;28;20081;-53
2021/11/04 04:27:30;;;;;;;0.20;0.20;;;;;;;4.70;100.00;99597.09;5114849;28;20043;-54
2021/11/04 04:30:33;;;;;;;0.60;0.50;;;;;;;4.67;100.00;99605.47;5114809;28;20054;-54
2021/11/04 04:33:36;;;;;;;0.52;0.40;;;;;;;4.59;100.00;99608.44;5114959;28;20093;-54
2021/11/04 04:36:40;;;;;;;0.20;0.20;;;;;;;4.66;100.00;99612.22;5114831;28;20054;-54
2021/11/04 04:39:42;;;;;;;0.55;0.55;;;;;;;4.65;100.00;99610.66;5114549;28;20096;-54
2021/11/04 04:42:46;;;;;;;0.22;0.22;;;;;;;4.66;100.00;99612.22;5114822;28;20054;-53
2021/11/04 04:45:49;;;;;;;0.68;0.68;;;;;;;4.55;100.00;99616.06;5114428;28;20047;-53
2021/11/04 04:48:52;;;;;;;0.20;0.20;;;;;;;4.65;100.00;99605.94;5114241;28;20047;-54
2021/11/04 04:51:55;;;;;;;0.13;0.13;;;;;;;4.71;100.00;99608.88;5114022;28;20042;-54
2021/11/04 04:54:58;;;;;;;0.40;0.40;;;;;;;4.74;100.00;99630.09;5114255;28;20463;-54
2021/11/04 04:58:02;;;;;;;0.38;0.38;;;;;;;4.72;100.00;99635.28;5113885;28;20386;-54
2021/11/04 05:01:05;;;;;;;0.40;0.40;;;;;;;4.68;100.00;99634.63;5113639;28;20466;-54
2021/11/04 05:04:09;;;;;;;0.80;0.47;;;;;;;4.71;100.00;99648.28;5113603;28;20579;-54
2021/11/04 05:07:12;;;;;;;0.10;0.10;;;;;;;4.69;100.00;99641.66;5113909;28;20037;-54
2021/11/04 05:10:15;;;;;;;0.50;0.50;;;;;;;4.67;100.00;99653.13;5113790;28;20100;-54
2021/11/04 05:13:18;;;;;;;0.40;0.40;;;;;;;4.60;100.00;99659.66;5113589;28;20042;-54
2021/11/04 05:16:21;;;;;;;4.05;0.40;;;;;;;4.63;100.00;99642.19;5113249;28;20039;-54
2021/11/04 05:19:23;;;;;;;0.20;0.20;;;;;;;4.54;100.00;99653.13;5113322;28;20039;-54
2021/11/04 05:22:26;;;;;;;1.23;0.95;;;;;;;4.60;100.00;99654.13;5132702;27;20043;-54
2021/11/04 05:25:29;;;;;;;4.60;1.75;;;;;;;4.66;100.00;99659.09;5134098;27;20047;-53
2021/11/04 05:28:32;;;;;;;0.68;0.68;;;;;;;4.74;100.00;99652.94;5133465;27;20088;-54
2021/11/04 05:31:35;;;;;;;8.98;1.75;;;;;;;4.52;100.00;99658.31;5133769;27;20458;-53
2021/11/04 05:34:40;;;;;;;4.25;1.75;;;;;;;4.51;100.00;99667.78;5121221;27;20541;-54
2021/11/04 05:37:44;;;;;;;2.78;1.13;;;;;;;4.42;100.00;99681.44;5133805;27;20054;-53
2021/11/04 05:40:47;;;;;;;1.08;0.43;;;;;;;4.40;100.00;99672.84;5134091;27;20442;-53
2021/11/04 05:43:50;;;;;;;0.30;0.30;;;;;;;4.50;100.00;99682.78;5133743;27;20057;-53
2021/11/04 05:46:53;;;;;;;0.65;0.60;;;;;;;4.32;100.00;99682.53;5121342;28;20078;-53
2021/11/04 05:49:56;;;;;;;0.32;0.32;;;;;;;4.29;100.00;99677.88;5133654;27;20093;-53
2021/11/04 05:53:00;;;;;;;0.17;0.17;;;;;;;4.33;100.00;99673.03;5134092;27;20054;-54
2021/11/04 05:56:03;;;;;;;0.73;0.60;;;;;;;4.24;100.00;99667.41;5133890;28;20130;-53
2021/11/04 05:59:06;;;;;;;1.67;0.63;;;;;;;4.52;100.00;99674.88;5133581;27;20095;-53
2021/11/04 06:02:09;;;;;;;13.00;2.42;;;;;;;4.43;100.00;99679.47;5133722;28;20079;-53
2021/11/04 06:05:11;;;;;;;0.30;0.30;;;;;;;4.75;100.00;99678.50;5133486;28;20088;-53
2021/11/04 06:08:14;;;;;;;0.40;0.40;;;;;;;4.83;100.00;99688.13;5133853;28;20038;-53
2021/11/04 06:11:17;;;;;;;0.30;0.20;;;;;;;4.76;100.00;99693.84;5133736;28;20073;-53
2021/11/04 06:14:20;;;;;;;0.20;0.20;;;;;;;4.63;100.00;99696.59;5133403;28;20042;-53
2021/11/04 06:17:23;;;;;;;0.10;0.10;;;;;;;4.81;100.00;99701.59;5133554;28;20096;-53
2021/11/04 06:20:26;;;;;;;0.20;0.20;;;;;;;4.87;100.00;99695.09;5130895;28;20098;-53
2021/11/04 06:23:28;;;;;;;0.20;0.20;;;;;;;4.80;100.00;99711.06;5113062;28;20039;-54
2021/11/04 06:26:31;;;;;;;0.25;0.25;;;;;;;4.79;100.00;99709.50;5113117;28;20058;-53
2021/11/04 06:29:34;;;;;;;0.22;0.22;;;;;;;4.56;100.00;99708.63;5112222;28;20043;-53
2021/11/04 06:32:37;;;;;;;0.30;0.30;;;;;;;4.72;100.00;99715.25;5100259;28;20051;-53
2021/11/04 06:35:39;;;;;;;0.30;0.30;;;;;;;4.69;100.00;99705.09;5111996;28;20047;-53
2021/11/04 06:38:43;;;;;;;0.25;0.25;;;;;;;4.67;100.00;99710.28;5099679;28;20088;-53
2021/11/04 06:41:46;;;;;;;0.30;0.30;;;;;;;5.00;100.00;99708.88;5112590;28;20437;-54
2021/11/04 06:44:49;;;;;;;0.32;0.32;;;;;;;4.89;100.00;99719.47;5113154;28;20116;-54
2021/11/04 06:47:53;;;;;;;0.35;0.35;;;;;;;4.82;100.00;99722.44;5112563;28;20081;-53
2021/11/04 06:50:59;;;;;;;0.40;0.40;;;;;;;4.92;100.00;99718.56;5112778;28;20147;-53
2021/11/04 06:54:06;;;;;;;0.47;0.47;;;;;;;4.90;100.00;99732.03;5112743;28;20084;-53
2021/11/04 06:57:16;;;;;;;0.30;0.30;;;;;;;4.87;100.00;99739.22;5112926;28;20537;-53
2021/11/04 07:00:20;;;;;;;0.28;0.28;;;;;;;5.09;100.00;99739.38;5112594;28;20046;-53
2021/11/04 07:03:27;;;;;;;0.50;0.50;;;;;;;5.07;100.00;99747.28;5113549;28;20115;-53
2021/11/04 07:06:35;;;;;;;0.10;0.10;;;;;;;4.99;100.00;99757.00;5115867;28;20131;-53
2021/11/04 07:09:41;;;;;;;0.50;0.50;;;;;;;4.84;100.00;99747.59;5115637;28;20046;-53
2021/11/04 07:12:49;;;;;;;0.28;0.28;;;;;;;4.94;100.00;99754.78;5116762;28;20054;-53
2021/11/04 07:15:54;;;;;;;0.43;0.43;;;;;;;5.13;100.00;99748.31;5115927;28;20399;-54
2021/11/04 07:18:58;;;;;;;0.30;0.30;;;;;;;5.24;100.00;99757.03;5115756;28;20418;-53
2021/11/04 07:22:22;;;;;;;0.65;0.65;;;;;;;5.23;100.00;99761.78;5119404;27;20100;-54
2021/11/04 07:25:27;;;;;;;0.43;0.40;;;;;;;5.36;100.00;99770.03;5136814;27;20038;-53
2021/11/04 07:28:30;;;;;;;0.50;0.50;;;;;;;5.30;100.00;99778.13;5136043;27;20050;-53
2021/11/04 07:31:39;;;;;;;0.52;0.40;;;;;;;5.36;100.00;99781.88;5123097;27;20045;-53
2021/11/04 07:34:45;;;;;;;0.25;0.25;;;;;;;5.31;100.00;99779.66;5123271;27;20403;-53
2021/11/04 07:37:49;;;;;;;0.30;0.30;;;;;;;5.43;100.00;99782.84;5123241;27;20553;-53
2021/11/04 07:40:52;;;;;;;0.35;0.35;;;;;;;5.40;100.00;99798.31;5135499;27;20092;-53
2021/11/04 07:43:57;;;;;;;0.60;0.60;;;;;;;5.41;100.00;99793.56;5135979;27;20059;-53
2021/11/04 07:47:01;;;;;;;0.30;0.30;;;;;;;5.41;100.00;99794.34;5136046;27;20091;-53
2021/11/04 07:50:06;;;;;;;1.58;0.50;;;;;;;5.42;100.00;99803.38;5135750;27;20111;-54
2021/11/04 07:53:09;;;;;;;0.25;0.25;;;;;;;4.73;100.00;99794.03;5135661;27;20046;-54
2021/11/04 07:56:12;;;;;;;0.10;0.10;;;;;;;4.38;100.00;99806.81;5135528;27;20038;-54
2021/11/04 07:59:15;;;;;;;0.35;0.35;;;;;;;4.39;100.00;99819.41;5135549;27;20038;-54
2021/11/04 08:02:18;;;;;;;0.40;0.40;;;;;;;4.43;100.00;99817.31;5135369;27;20046;-54
2021/11/04 08:05:22;;;;;;;0.75;0.52;;;;;;;4.42;100.00;99819.28;5135345;27;20037;-54
2021/11/04 08:08:25;;;;;;;0.10;0.10;;;;;;;4.41;100.00;99831.53;5135563;27;20038;-54
2021/11/04 08:11:29;;;;;;;5.60;1.05;;;;;;;4.41;100.00;99833.50;5135235;27;20108;-54
2021/11/04 08:14:32;;;;;;;0.28;0.28;;;;;;;4.31;100.00;99840.84;5134412;27;20498;-54
2021/11/04 08:17:35;;;;;;;0.35;0.35;;;;;;;4.39;100.00;99847.75;5121090;27;20050;-54
2021/11/04 08:20:39;;;;;;;0.80;0.80;;;;;;;4.45;100.00;99854.28;5133977;27;20090;-54
2021/11/04 08:23:42;;;;;;;0.43;0.43;;;;;;;4.44;100.00;99865.75;5134732;27;20115;-54
2021/11/04 08:26:45;;;;;;;2.70;1.00;;;;;;;4.47;100.00;99860.13;5132281;27;20088;-54
2021/11/04 08:29:48;;;;;;;0.30;0.30;;;;;;;4.55;100.00;99853.22;5134118;27;20061;-55
2021/11/04 08:32:50;;;;;;;0.47;0.40;;;;;;;4.50;100.00;99870.28;5135132;27;20045;-54
2021/11/04 08:35:53;;;;;;;0.45;0.40;;;;;;;4.62;100.00;99868.78;5121803;27;20037;-54
2021/11/04 08:38:57;;;;;;;1.55;1.02;;;;;;;4.41;100.00;99877.63;5134610;27;20056;-54
2021/11/04 08:42:00;;;;;;;0.40;0.40;;;;;;;4.74;100.00;99886.63;5134830;27;20382;-54
2021/11/04 08:45:04;;;;;;;0.30;0.30;;;;;;;4.87;100.00;99887.44;5134203;27;20536;-56
2021/11/04 08:48:07;;;;;;;0.57;0.57;;;;;;;4.89;100.00;99896.06;5134541;27;20046;-54
2021/11/04 08:51:11;;;;;;;0.68;0.68;;;;;;;5.01;100.00;99887.81;5134536;27;20058;-54
2021/11/04 08:54:14;;;;;;;0.52;0.52;;;;;;;4.91;100.00;99896.38;5134301;27;20057;-54
2021/11/04 08:57:18;;;;;;;0.63;0.52;;;;;;;5.07;100.00;99904.59;5134348;27;20081;-54
2021/11/04 09:00:22;;;;;;;0.57;0.57;;;;;;;5.03;100.00;99915.75;5134052;27;20038;-54
2021/11/04 09:03:26;;;;;;;0.43;0.43;;;;;;;5.21;100.00;99901.44;5121271;27;20123;-54
2021/11/04 09:06:28;;;;;;;2.33;1.00;;;;;;;5.41;100.00;99910.34;5133788;27;20697;-55
2021/11/04 09:09:31;;;;;;;8.05;0.65;;;;;;;5.57;100.00;99907.47;5133834;27;20068;-54
2021/11/04 09:12:35;;;;;;;0.50;0.50;;;;;;;5.72;100.00;99907.81;5133981;27;20402;-49
2021/11/04 09:15:39;;;;;;;0.10;0.10;;;;;;;5.42;100.00;99906.34;5134395;27;20455;-49
2021/11/04 09:18:42;;;;;;;0.30;0.30;;;;;;;5.67;100.00;99917.44;5134169;27;20106;-49
2021/11/04 09:21:45;;;;;;;0.30;0.30;;;;;;;5.80;100.00;99914.69;5133941;27;20125;-49
2021/11/04 09:24:49;;;;;;;0.40;0.40;;;;;;;5.88;100.00;99910.50;5134133;27;20501;-49
2021/11/04 09:27:55;;;;;;;0.32;0.32;;;;;;;6.05;100.00;99918.25;5134024;27;20419;-49
2021/11/04 09:30:58;;;;;;;0.28;0.28;;;;;;;6.16;100.00;99928.19;5133861;27;20104;-49
2021/11/04 09:34:02;;;;;;;2.53;0.25;;;;;;;6.21;100.00;99924.88;5134008;27;20130;-49
2021/11/04 09:37:06;;;;;;;1.65;0.90;;;;;;;6.30;100.00;99925.75;5133992;27;20080;-49
2021/11/04 09:40:10;;;;;;;0.15;0.15;;;;;;;6.31;100.00;99919.00;5133695;27;20470;-49
2021/11/04 09:43:13;;;;;;;0.20;0.20;;;;;;;6.36;100.00;99917.66;5121033;27;20042;-49
2021/11/04 09:46:16;;;;;;;0.22;0.22;;;;;;;6.40;100.00;99918.31;5133749;27;20042;-49
2021/11/04 09:49:20;;;;;;;0.13;0.13;;;;;;;6.24;100.00;99926.75;5133401;27;20038;-49
2021/11/04 09:52:29;;;;;;;0.68;0.30;;;;;;;6.31;100.00;99926.50;5133412;28;20402;-49
2021/11/04 09:55:32;;;;;;;0.10;0.10;;;;;;;6.49;100.00;99929.47;5133784;28;20057;-49
2021/11/04 09:58:35;;;;;;;0.40;0.28;;;;;;;6.62;100.00;99935.75;5133598;28;20084;-49
2021/11/04 10:01:47;;;;;;;0.10;0.10;;;;;;;6.73;100.00;99930.63;5133617;28;20123;-49
2021/11/04 10:04:51;;;;;;;0.20;0.20;;;;;;;6.74;100.00;99937.69;5133557;28;20510;-49
2021/11/04 10:07:54;;;;;;;0.30;0.30;;;;;;;6.82;100.00;99939.03;5133625;28;20065;-49
2021/11/04 10:11:11;;;;;;;0.10;0.10;;;;;;;6.87;100.00;99943.97;5132927;28;20046;-49
2021/11/04 10:14:18;;;;;;;0.40;0.40;;;;;;;6.92;100.00;99946.19;5133269;28;20506;-49
2021/11/04 10:17:37;;;;;;;0.40;0.40;;;;;;;6.96;100.00;99946.03;5133299;28;20115;-49
2021/11/04 10:20:41;;;;;;;0.20;0.10;;;;;;;6.97;100.00;99958.69;5133185;28;20094;-49
2021/11/04 10:23:46;;;;;;;0.50;0.40;;;;;;;6.99;100.00;99959.78;5133003;28;20096;-49
2021/11/04 10:26:54;;;;;;;0.28;0.28;;;;;;;7.00;100.00;99964.09;5133244;27;20050;-49
2021/11/04 10:29:57;;;;;;;0.30;0.20;;;;;;;6.99;100.00;99954.25;5132621;27;20539;-49
2021/11/04 10:33:16;;;;;;;0.28;0.28;;;;;;;7.18;100.00;99961.47;5133611;28;20567;-49
2021/11/04 10:36:24;;;;;;;0.73;0.65;;;;;;;7.26;100.00;99959.22;5132927;27;20698;-49
2021/11/04 10:39:28;;;;;;;0.47;0.47;;;;;;;7.29;100.00;99961.88;5137131;27;20037;-49
2021/11/04 10:42:48;;;;;;;0.60;0.60;;;;;;;7.15;100.00;99973.44;5137036;27;20505;-49
2021/11/04 10:46:12;;;;;;;2.15;0.50;;;;;;;7.26;100.00;99973.06;5124585;27;20442;-49
2021/11/04 10:49:17;;;;;;;1.38;0.57;;;;;;;7.29;100.00;99978.50;5136853;27;20387;-49
2021/11/04 10:52:27;;;;;;;1.45;1.17;;;;;;;7.29;100.00;99972.94;5136956;27;20139;-49
2021/11/04 10:55:30;;;;;;;0.20;0.20;;;;;;;7.53;100.00;99981.59;5136601;27;20096;-49
2021/11/04 10:58:34;;;;;;;0.20;0.20;;;;;;;7.50;100.00;99972.16;5136490;27;20042;-49
2021/11/04 11:01:41;;;;;;;1.25;0.65;;;;;;;7.58;100.00;99979.00;5136703;27;20103;-49
2021/11/04 11:04:44;;;;;;;0.25;0.25;;;;;;;7.70;100.00;99984.91;5136483;27;20042;-49
2021/11/04 11:07:47;;;;;;;0.45;0.30;;;;;;;7.70;100.00;99988.47;5136716;27;20134;-49
2021/11/04 11:10:51;;;;;;;0.22;0.22;;;;;;;7.69;100.00;99988.94;5112061;27;20701;-49
2021/11/04 11:13:54;;;;;;;0.65;0.38;;;;;;;7.71;100.00;99992.75;5102468;27;20824;-49
2021/11/04 11:17:00;;;;;;;0.40;0.40;;;;;;;7.69;100.00;99994.47;5104441;27;20031;-49
2021/11/04 11:20:03;;;;;;;0.30;0.30;;;;;;;7.78;100.00;99989.72;5102689;27;20030;-49
2021/11/04 11:23:07;;;;;;;0.25;0.25;;;;;;;8.01;100.00;99999.59;5083149;28;20507;-49
2021/11/04 11:26:14;;;;;;;0.30;0.30;;;;;;;8.11;100.00;99998.38;5083641;28;20035;-49
2021/11/04 11:29:17;;;;;;;3.33;1.15;;;;;;;8.20;100.00;99996.44;5085111;28;20042;-49
2021/11/04 11:32:28;;;;;;;0.25;0.25;;;;;;;8.41;100.00;100005.94;5085010;28;20038;-49
2021/11/04 11:35:32;;;;;;;0.20;0.20;;;;;;;8.58;100.00;99996.13;5085698;28;20278;-49
2021/11/04 11:39:04;;;;;;;0.30;0.30;;;;;;;8.81;100.00;100003.91;5086526;28;20051;-49
2021/11/04 11:42:09;;;;;;;0.45;0.45;;;;;;;9.15;100.00;100003.66;5084376;28;20326;-49
2021/11/04 11:45:14;;;;;;;0.22;0.22;;;;;;;9.49;100.00;100004.56;5083265;28;20066;-49
2021/11/04 11:48:27;;;;;;;1.35;0.77;;;;;;;9.69;100.00;100007.63;5080685;28;20043;-49
2021/11/04 11:51:55;;;;;;;0.55;0.35;;;;;;;9.82;100.00;100005.44;5082518;27;20034;-50
2021/11/04 11:55:07;;;;;;;0.30;0.30;;;;;;;10.00;100.00;100005.41;5077107;28;20056;-48
2021/11/04 11:58:14;;;;;;;0.45;0.40;;;;;;;10.07;100.00;100005.06;5095998;27;20042;-49
2021/11/04 12:01:49;;;;;;;0.20;0.20;;;;;;;10.06;100.00;99997.97;5103925;27;20066;-49
2021/11/04 12:04:54;;;;;;;0.68;0.68;;;;;;;10.18;100.00;99994.22;5094588;27;20038;-49
2021/11/04 12:08:09;;;;;;;0.40;0.40;;;;;;;10.29;100.00;99999.28;5108342;27;20054;-49
2021/11/04 12:11:41;;;;;;;0.10;0.10;;;;;;;10.47;100.00;99994.44;5109138;27;20136;-48
2021/11/04 12:14:59;;;;;;;0.28;0.20;;;;;;;10.53;100.00;100003.69;5107264;27;20107;-49
2021/11/04 12:18:19;;;;;;;0.40;0.30;;;;;;;10.48;100.00;99998.75;5106903;27;20136;-49
2021/11/04 12:21:35;;;;;;;0.30;0.30;;;;;;;10.62;100.00;100003.63;5095429;27;20129;-48
2021/11/04 12:25:03;;;;;;;0.15;0.15;;;;;;;10.73;100.00;100010.69;5094424;27;20158;-48
2021/11/04 12:28:06;;;;;;;0.35;0.20;;;;;;;10.67;100.00;100002.22;5086640;27;20158;-46
2021/11/04 12:31:23;;;;;;;0.30;0.20;;;;;;;10.58;100.00;100005.84;5089188;27;20038;-46
2021/11/04 12:34:26;;;;;;;0.20;0.20;;;;;;;10.44;100.00;100000.94;5085701;28;20096;-46
2021/11/04 12:37:34;;;;;;;0.55;0.45;;;;;;;10.42;100.00;100006.19;5072033;28;20069;-46
2021/11/04 12:40:38;;;;;;;0.20;0.20;;;;;;;10.40;100.00;100011.47;5058120;28;20301;-46
2021/11/04 12:43:43;;;;;;;0.60;0.30;;;;;;;10.82;100.00;100005.06;5057323;28;20357;-47
2021/11/04 12:46:47;;;;;;;0.20;0.10;;;;;;;11.18;100.00;100008.38;5059604;28;20499;-46
2021/11/04 12:49:54;;;;;;;0.25;0.25;;;;;;;11.33;100.00;100014.78;5061920;28;20086;-46
2021/11/04 12:53:01;;;;;;;0.40;0.32;;;;;;;11.21;100.00;100015.03;5067424;28;20047;-45
2021/11/04 12:56:04;;;;;;;0.20;0.20;;;;;;;11.12;100.00;100015.09;5065272;28;20287;-46
2021/11/04 12:59:10;;;;;;;3.03;0.17;;;;;;;10.99;100.00;100006.19;5067504;28;20043;-46
2021/11/04 13:02:30;;;;;;;0.10;0.10;;;;;;;10.79;100.00;100015.16;5066886;28;20067;-46
2021/11/04 13:05:38;;;;;;;0.10;0.10;;;;;;;10.48;100.00;100009.88;5065099;28;20585;-46
2021/11/04 13:08:41;;;;;;;0.20;0.20;;;;;;;10.17;100.00;100012.19;5061537;28;20050;-52
2021/11/04 13:12:10;;;;;;;0.20;0.20;;;;;;;10.00;100.00;100019.31;5063516;28;20550;-52
2021/11/04 13:15:19;;;;;;;0.20;0.20;;;;;;;9.89;100.00;100021.81;5062297;28;20120;-52
2021/11/04 13:18:23;;;;;;;0.63;0.32;;;;;;;9.98;100.00;100024.59;5061758;28;20229;-52
2021/11/04 13:21:33;;;;;;;2.67;0.98;;;;;;;10.07;100.00;100030.09;5066210;28;20427;-53
2021/11/04 13:24:44;;;;;;;0.20;0.20;;;;;;;10.54;100.00;100032.31;5062020;28;20868;-53
2021/11/04 13:27:52;;;;;;;0.10;0.10;;;;;;;10.81;100.00;100028.59;5060924;28;20030;-54
2021/11/04 13:31:08;;;;;;;0.20;0.20;;;;;;;11.05;100.00;100032.16;5075679;28;20141;-53
2021/11/04 13:34:12;;;;;;;1.00;0.30;;;;;;;11.21;100.00;100034.53;5084414;28;20313;-54
2021/11/04 13:37:18;;;;;;;0.10;0.10;;;;;;;11.41;100.00;100037.50;5092255;27;20077;-52
2021/11/04 13:40:46;;;;;;;0.35;0.22;;;;;;;11.57;100.00;100045.41;5098164;27;20134;-55
2021/11/04 13:43:50;;;;;;;0.40;0.40;;;;;;;11.71;100.00;100033.56;5098002;27;20051;-54
2021/11/04 13:46:53;;;;;;;0.60;0.60;;;;;;;11.64;100.00;100042.25;5097962;27;20056;-52
2021/11/04 13:49:56;;;;;;;0.73;0.20;;;;;;;11.57;100.00;100034.25;5097022;27;20062;-55
2021/11/04 13:52:59;;;;;;;0.10;0.10;;;;;;;11.33;100.00;100033.50;5096811;28;20148;-55
2021/11/04 13:56:11;;;;;;;0.15;0.10;;;;;;;10.97;100.00;100025.41;5099030;27;20470;-55
2021/11/04 13:59:15;;;;;;;;;;;;;;;10.51;100.00;100028.44;5102372;28;20034;-54
2021/11/04 14:02:20;;;;;;;0.40;0.40;;;;;;;10.18;100.00;100043.59;5101848;27;19911;-53
2021/11/04 14:05:45;;;;;;;0.10;0.10;;;;;;;10.01;100.00;100045.13;5101790;28;20039;-55
2021/11/04 14:08:48;;;;;;;0.10;0.10;;;;;;;9.95;100.00;100044.97;5100941;27;20073;-53
2021/11/04 14:12:04;;;;;;;2.30;0.30;;;;;;;9.95;100.00;100042.19;5101025;27;20665;-54
2021/11/04 14:15:22;;;;;;;1.65;0.52;;;;;;;9.97;100.00;100045.28;5105983;27;20489;-55
2021/11/04 14:18:25;;;;;;;0.20;0.20;;;;;;;9.86;100.00;100045.00;5104949;27;20042;-54
2021/11/04 14:21:34;;;;;;;0.43;0.43;;;;;;;9.72;100.00;100046.38;5093841;27;20271;-51
2021/11/04 14:24:37;;;;;;;0.28;0.28;;;;;;;9.61;100.00;100050.91;5086211;28;20043;-50
2021/11/04 14:28:06;;;;;;;0.40;0.30;;;;;;;9.43;100.00;100059.22;5085585;28;20463;-50
2021/11/04 14:31:09;;;;;;;1.48;0.50;;;;;;;9.33;100.00;100061.25;5085231;28;20137;-50
2021/11/04 14:34:13;;;;;;;0.20;0.20;;;;;;;9.27;100.00;100053.97;5084622;28;20548;-50
2021/11/04 14:37:16;;;;;;;0.60;0.60;;;;;;;9.22;100.00;100063.69;5071146;28;20216;-50
2021/11/04 14:40:20;;;;;;;0.20;0.20;;;;;;;9.16;100.00;100066.28;5083679;28;20059;-49
2021/11/04 14:43:24;;;;;;;0.40;0.40;;;;;;;9.09;100.00;100065.84;5084334;28;20027;-50
2021/11/04 14:46:30;;;;;;;1.98;1.38;;;;;;;9.04;100.00;100070.00;5083699;28;20084;-50
2021/11/04 14:49:33;;;;;;;0.50;0.50;;;;;;;8.96;100.00;100067.97;5085945;28;20343;-50
2021/11/04 14:52:38;;;;;;;0.10;0.10;;;;;;;8.98;100.00;100071.84;5082696;28;20244;-50
2021/11/04 14:55:41;;;;;;;0.30;0.30;;;;;;;8.95;100.00;100077.53;5083607;28;20075;-49
2021/11/04 14:58:45;;;;;;;4.65;0.90;;;;;;;8.89;100.00;100073.81;5083183;28;20415;-54
2021/11/04 15:01:48;;;;;;;0.88;0.45;;;;;;;9.09;100.00;100080.50;5085533;28;20213;-55
2021/11/04 15:04:51;;;;;;;0.38;0.38;;;;;;;9.18;100.00;100087.31;5071316;28;20323;-54
2021/11/04 15:07:54;;;;;;;0.10;0.10;;;;;;;9.28;100.00;100083.31;5084475;28;20138;-56
2021/11/04 15:10:58;;;;;;;0.20;0.20;;;;;;;9.55;100.00;100086.13;5071111;28;20236;-53
2021/11/04 15:14:02;;;;;;;0.15;0.15;;;;;;;9.64;100.00;100095.22;5084141;28;20100;-50
2021/11/04 15:17:05;;;;;;;5.72;0.77;;;;;;;9.82;100.00;100094.44;5084703;28;20459;-45
2021/11/04 15:20:09;;;;;;;0.52;0.45;;;;;;;9.85;100.00;100099.84;5084317;27;20089;-45
2021/11/04 15:23:14;;;;;;;0.50;0.50;;;;;;;9.81;100.00;100093.66;5103491;27;20369;-46
2021/11/04 15:26:17;;;;;;;0.30;0.30;;;;;;;9.74;100.00;100094.00;5105157;27;20273;-47
2021/11/04 15:29:20;;;;;;;0.22;0.22;;;;;;;9.68;100.00;100100.66;5104269;27;20152;-48
2021/11/04 15:32:23;;;;;;;0.22;0.22;;;;;;;9.45;100.00;100104.00;5103196;27;20096;-47